Weather at Cork Airport

Public forecast

Using degrees Celsius for public forecast. Weather courtesy of forecast.io.

Current aviation weather report (METAR) for Cork Airport

Retrieved 2022/01/18 19:30 UTC (8 minutes ago):

EICK 181930Z 20008KT 9000 -DZ OVC004 09/09 Q1031 TEMPO 3000

Aviation forecast (TAF) for Cork Airport

Retrieved 2022/01/18 18:11 UTC (1 hour ago):

TAF EICK 181700Z 1818/1918 20010KT 9999 BKN004 BECMG 1818/1820 3000 -DZ BR SCT001 BKN003 TEMPO 1819/1901 0500 FG BKN001 BECMG 1822/1824 23008KT BECMG 1900/1902 31010KT PROB40 TEMPO 1903/1908 2000 BR PROB30 TEMPO 1903/1908 0500 FG BKN002 BECMG 1908/1910 34013KT PROB40 TEMPO 1908/1910 4000 -RA BKN008